createdAt,value
2022-12-04T00:00:51.492Z,0.90
2022-12-04T00:01:53.082Z,0.90
2022-12-04T00:02:54.815Z,0.90
2022-12-04T00:03:58.921Z,1.00
2022-12-04T00:05:00.833Z,1.00
2022-12-04T00:06:14.155Z,1.00
2022-12-04T00:07:15.819Z,0.90
2022-12-04T00:08:17.493Z,0.90
2022-12-04T00:09:19.166Z,0.90
2022-12-04T00:10:20.920Z,0.90
2022-12-04T00:11:25.433Z,0.90
2022-12-04T00:12:27.418Z,0.90
2022-12-04T00:13:29.057Z,0.90
2022-12-04T00:14:30.657Z,0.90
2022-12-04T00:15:32.287Z,0.90
2022-12-04T00:16:34.651Z,0.90
2022-12-04T00:17:36.338Z,1.00
2022-12-04T00:18:38.160Z,1.00
2022-12-04T00:19:39.947Z,0.90
2022-12-04T00:20:41.714Z,0.90
2022-12-04T00:21:45.345Z,0.90
2022-12-04T00:22:47.069Z,1.00
2022-12-04T00:23:49.278Z,0.90
2022-12-04T00:24:50.860Z,0.90
2022-12-04T00:25:53.241Z,0.90
2022-12-04T00:26:54.974Z,0.90
2022-12-04T00:27:56.583Z,1.00
2022-12-04T00:28:58.273Z,1.00
2022-12-04T00:29:59.936Z,1.10
2022-12-04T00:31:06.052Z,1.00
2022-12-04T00:32:07.812Z,1.00
2022-12-04T00:33:09.667Z,1.00
2022-12-04T00:34:11.688Z,1.00
2022-12-04T00:35:13.312Z,1.00
2022-12-04T00:36:18.286Z,1.00
2022-12-04T00:37:19.954Z,1.00
2022-12-04T00:38:21.542Z,1.00
2022-12-04T00:39:23.185Z,1.00
2022-12-04T00:40:24.783Z,1.00
2022-12-04T00:41:29.084Z,1.00
2022-12-04T00:42:30.904Z,0.90
2022-12-04T00:43:32.515Z,0.90
2022-12-04T00:44:34.108Z,0.90
2022-12-04T00:45:35.702Z,0.90
2022-12-04T00:46:37.308Z,0.90
2022-12-04T00:47:38.958Z,0.90
2022-12-04T00:48:41.612Z,1.00
2022-12-04T00:49:43.203Z,1.00
2022-12-04T00:50:44.913Z,1.00
2022-12-04T00:51:46.543Z,1.00
2022-12-04T00:52:48.167Z,1.10
2022-12-04T00:53:51.020Z,1.10
2022-12-04T00:54:52.696Z,1.00
2022-12-04T00:55:54.298Z,1.10
2022-12-04T00:56:55.885Z,1.10
2022-12-04T00:57:59.980Z,1.10
2022-12-04T00:59:02.082Z,1.20
2022-12-04T01:00:05.094Z,1.10
2022-12-04T01:01:10.535Z,1.10
2022-12-04T01:02:12.189Z,1.20
2022-12-04T01:03:13.892Z,1.10
2022-12-04T01:04:15.613Z,1.10
2022-12-04T01:05:17.328Z,1.10
2022-12-04T01:06:23.167Z,1.10
2022-12-04T01:07:24.761Z,1.10
2022-12-04T01:08:26.560Z,1.10
2022-12-04T01:09:28.295Z,1.00
2022-12-04T01:10:29.896Z,1.10
2022-12-04T01:11:32.605Z,1.10
2022-12-04T01:12:34.557Z,1.00
2022-12-04T01:13:36.218Z,1.00
2022-12-04T01:14:37.807Z,0.90
2022-12-04T01:15:42.446Z,1.00
2022-12-04T01:16:44.151Z,1.00
2022-12-04T01:17:45.857Z,1.00
2022-12-04T01:18:47.960Z,1.00
2022-12-04T01:19:49.815Z,1.10
2022-12-04T01:20:52.818Z,1.10
2022-12-04T01:21:54.543Z,1.00
2022-12-04T01:22:56.167Z,1.00
2022-12-04T01:23:59.178Z,1.00
2022-12-04T01:25:00.800Z,0.90
2022-12-04T01:26:02.499Z,0.90
2022-12-04T01:27:04.175Z,0.80
2022-12-04T01:28:05.800Z,0.80
2022-12-04T01:29:07.492Z,0.80
2022-12-04T01:30:09.442Z,0.70
2022-12-04T01:31:14.298Z,0.70
2022-12-04T01:32:16.237Z,0.80
2022-12-04T01:33:17.845Z,0.80
2022-12-04T01:34:19.577Z,0.90
2022-12-04T01:35:21.203Z,0.90
2022-12-04T01:36:26.437Z,0.80
2022-12-04T01:37:30.974Z,0.80
2022-12-04T01:38:33.789Z,0.80
2022-12-04T01:39:38.745Z,0.80
2022-12-04T01:40:44.651Z,0.80
2022-12-04T01:41:46.694Z,0.70
2022-12-04T01:42:48.309Z,0.70
2022-12-04T01:44:11.394Z,0.70
2022-12-04T01:45:31.434Z,0.70
2022-12-04T01:46:33.135Z,0.70
2022-12-04T01:47:34.748Z,0.70
2022-12-04T01:48:51.574Z,0.70
2022-12-04T01:49:53.439Z,0.70
2022-12-04T01:51:19.019Z,0.60
2022-12-04T01:52:23.522Z,0.70
2022-12-04T01:53:25.491Z,0.70
2022-12-04T01:54:35.746Z,0.60
2022-12-04T01:55:37.584Z,0.70
2022-12-04T01:57:12.773Z,0.70
2022-12-04T01:58:15.625Z,0.70
2022-12-04T01:59:21.697Z,0.80
2022-12-04T02:00:24.188Z,0.80
2022-12-04T02:01:29.129Z,0.80
2022-12-04T02:02:35.017Z,0.80
2022-12-04T02:03:38.766Z,0.90
2022-12-04T02:04:42.150Z,0.80
2022-12-04T02:05:45.105Z,0.80
2022-12-04T02:06:46.855Z,0.70
2022-12-04T02:07:52.218Z,0.70
2022-12-04T02:08:54.321Z,0.70
2022-12-04T02:09:56.552Z,0.80
2022-12-04T02:11:01.341Z,0.70
2022-12-04T02:12:08.804Z,0.70
2022-12-04T02:13:16.842Z,0.70
2022-12-04T02:14:24.490Z,0.70
2022-12-04T02:15:53.193Z,0.70
2022-12-04T02:17:12.293Z,0.80
2022-12-04T02:18:28.431Z,0.80
2022-12-04T02:19:57.366Z,0.90
2022-12-04T02:21:13.708Z,0.90
2022-12-04T02:22:34.321Z,0.90
2022-12-04T02:23:57.153Z,1.00
2022-12-04T02:25:25.184Z,1.00
2022-12-04T02:26:48.973Z,1.10
2022-12-04T02:28:00.175Z,1.00
2022-12-04T02:29:20.348Z,1.00
2022-12-04T02:30:22.127Z,0.90
2022-12-04T02:31:38.723Z,0.90
2022-12-04T02:33:00.707Z,0.90
2022-12-04T02:34:16.080Z,0.90
2022-12-04T02:35:30.472Z,0.90
2022-12-04T02:36:40.746Z,0.80
2022-12-04T02:37:53.504Z,0.70
2022-12-04T02:39:38.283Z,0.70
2022-12-04T02:42:16.094Z,0.80
2022-12-04T02:43:32.595Z,0.90
2022-12-04T02:44:49.612Z,0.90
2022-12-04T02:46:08.494Z,1.00
2022-12-04T02:47:13.315Z,0.90
2022-12-04T02:48:20.570Z,0.90
2022-12-04T02:49:37.003Z,1.00
2022-12-04T02:50:40.889Z,1.00
2022-12-04T02:51:44.720Z,0.90
2022-12-04T02:52:57.534Z,0.90
2022-12-04T02:54:06.152Z,0.90
2022-12-04T02:55:14.938Z,1.00
2022-12-04T02:56:25.016Z,1.00
2022-12-04T02:57:32.669Z,1.00
2022-12-04T02:58:41.607Z,0.90
2022-12-04T02:59:45.437Z,1.00
2022-12-04T03:00:48.551Z,1.00
2022-12-04T03:01:54.203Z,1.00
2022-12-04T03:03:10.484Z,1.00
2022-12-04T03:04:19.541Z,1.00
2022-12-04T03:05:27.739Z,1.00
2022-12-04T03:06:32.480Z,1.00
2022-12-04T03:07:46.751Z,1.00
2022-12-04T03:08:58.295Z,1.00
2022-12-04T03:10:05.877Z,0.90
2022-12-04T03:11:08.009Z,0.90
2022-12-04T03:12:26.438Z,1.00
2022-12-04T03:13:34.081Z,1.00
2022-12-04T03:14:42.302Z,1.00
2022-12-04T03:15:54.230Z,1.00
2022-12-04T03:17:00.526Z,1.00
2022-12-04T03:18:09.245Z,1.00
2022-12-04T03:19:21.911Z,1.00
2022-12-04T03:20:24.940Z,1.10
2022-12-04T03:21:31.652Z,1.10
2022-12-04T03:22:36.627Z,1.10
2022-12-04T03:23:51.142Z,1.10
2022-12-04T03:24:55.360Z,1.10
2022-12-04T03:26:12.217Z,1.00
2022-12-04T03:27:25.930Z,1.10
2022-12-04T03:28:37.261Z,1.10
2022-12-04T03:29:46.301Z,1.10
2022-12-04T03:30:57.777Z,1.20
2022-12-04T03:32:13.403Z,1.10
2022-12-04T03:33:19.906Z,1.10
2022-12-04T03:34:41.889Z,1.00
2022-12-04T03:35:48.657Z,1.00
2022-12-04T03:36:55.134Z,1.10
2022-12-04T03:38:12.029Z,1.20
2022-12-04T03:39:24.900Z,1.10
2022-12-04T03:40:39.003Z,1.20
2022-12-04T03:41:50.126Z,1.20
2022-12-04T03:42:59.899Z,1.20
2022-12-04T03:44:18.867Z,1.20
2022-12-04T03:45:49.390Z,1.20
2022-12-04T03:47:05.737Z,1.10
2022-12-04T03:48:23.445Z,1.10
2022-12-04T03:49:25.613Z,1.20
2022-12-04T03:50:34.113Z,1.20
2022-12-04T03:51:42.753Z,1.20
2022-12-04T03:53:00.638Z,1.30
2022-12-04T03:54:09.040Z,1.30
2022-12-04T03:55:43.033Z,1.30
2022-12-04T03:56:52.579Z,1.30
2022-12-04T03:58:01.274Z,1.30
2022-12-04T03:59:12.765Z,1.30
2022-12-04T04:00:22.886Z,1.30
2022-12-04T04:01:33.863Z,1.30
2022-12-04T04:02:42.283Z,1.30
2022-12-04T04:03:50.344Z,1.40
2022-12-04T04:04:57.812Z,1.40
2022-12-04T04:06:06.441Z,1.40
2022-12-04T04:07:16.376Z,1.40
2022-12-04T04:08:27.446Z,1.40
2022-12-04T04:09:35.372Z,1.40
2022-12-04T04:10:38.124Z,1.30
2022-12-04T04:11:52.012Z,1.30
2022-12-04T04:13:22.260Z,1.40
2022-12-04T04:14:48.893Z,1.40
2022-12-04T04:16:15.030Z,1.40
2022-12-04T04:17:39.142Z,1.40
2022-12-04T04:19:02.463Z,1.40
2022-12-04T04:20:31.308Z,1.40
2022-12-04T04:21:57.150Z,1.40
2022-12-04T04:23:20.101Z,1.50
2022-12-04T04:24:41.667Z,1.40
2022-12-04T04:25:46.480Z,1.40
2022-12-04T04:26:50.704Z,1.40
2022-12-04T04:27:58.204Z,1.40
2022-12-04T04:29:00.606Z,1.40
2022-12-04T04:30:03.320Z,1.40
2022-12-04T04:31:21.452Z,1.40
2022-12-04T04:32:58.243Z,1.40
2022-12-04T04:34:11.587Z,1.40
2022-12-04T04:35:29.852Z,1.40
2022-12-04T04:36:45.382Z,1.30
2022-12-04T04:38:02.332Z,1.30
2022-12-04T04:41:21.210Z,1.30
2022-12-04T04:43:02.256Z,1.30
2022-12-04T04:44:43.359Z,1.30
2022-12-04T04:46:35.199Z,1.30
2022-12-04T04:48:09.720Z,1.20
2022-12-04T04:49:50.249Z,1.20
2022-12-04T04:54:59.153Z,1.10
2022-12-04T04:59:35.692Z,1.10
2022-12-04T05:01:23.566Z,1.10
2022-12-04T05:02:37.804Z,1.10
2022-12-04T05:03:59.064Z,1.00
2022-12-04T05:06:50.005Z,1.10
2022-12-04T05:09:36.804Z,1.20
2022-12-04T05:10:53.886Z,1.20
2022-12-04T05:14:14.871Z,1.20
2022-12-04T05:15:30.185Z,1.10
2022-12-04T05:21:07.826Z,1.20
2022-12-04T05:27:16.067Z,1.30
2022-12-04T05:28:41.244Z,1.30
2022-12-04T05:30:06.744Z,1.40
2022-12-04T05:31:25.343Z,1.40
2022-12-04T05:32:53.972Z,1.40
2022-12-04T05:34:16.310Z,1.40
2022-12-04T05:36:03.884Z,1.40
2022-12-04T05:37:09.535Z,1.40
2022-12-04T05:38:46.072Z,1.40
2022-12-04T05:41:03.074Z,1.40
2022-12-04T05:42:38.950Z,1.40
2022-12-04T05:45:56.893Z,1.30
2022-12-04T05:47:40.881Z,1.30
2022-12-04T05:49:46.581Z,1.30
2022-12-04T05:52:54.366Z,1.40
2022-12-04T05:54:12.348Z,1.50
2022-12-04T05:55:33.031Z,1.40
2022-12-04T05:57:14.234Z,1.40
2022-12-04T06:00:31.803Z,1.50
2022-12-04T06:02:07.387Z,1.50
2022-12-04T06:05:46.894Z,1.60
2022-12-04T06:07:22.177Z,1.50
2022-12-04T06:10:12.897Z,1.60
2022-12-04T06:11:52.209Z,1.50
2022-12-04T06:16:58.422Z,1.60
2022-12-04T06:20:12.436Z,1.50
2022-12-04T06:21:43.461Z,1.50
2022-12-04T06:22:54.649Z,1.50
2022-12-04T06:24:31.956Z,1.60
2022-12-04T06:26:25.221Z,1.60
2022-12-04T06:27:50.168Z,1.50
2022-12-04T06:29:22.394Z,1.50
2022-12-04T06:30:36.988Z,1.50
2022-12-04T06:34:37.996Z,1.50
2022-12-04T06:36:23.091Z,1.50
2022-12-04T06:39:46.335Z,1.60
2022-12-04T06:43:02.206Z,1.60
2022-12-04T06:45:56.340Z,1.60
2022-12-04T06:49:12.917Z,1.50
2022-12-04T06:53:42.340Z,1.50
2022-12-04T06:55:10.721Z,1.50
2022-12-04T06:56:29.704Z,1.60
2022-12-04T06:58:00.270Z,1.60
2022-12-04T07:00:40.686Z,1.60
2022-12-04T07:00:58.331Z,1.60
2022-12-04T07:02:13.396Z,1.60
2022-12-04T07:03:51.667Z,1.50
2022-12-04T07:06:57.700Z,1.60
2022-12-04T07:08:16.823Z,1.50
2022-12-04T07:09:32.184Z,1.50
2022-12-04T07:10:57.460Z,1.40
2022-12-04T07:12:28.668Z,1.30
2022-12-04T07:13:54.317Z,1.30
2022-12-04T07:15:15.149Z,1.30
2022-12-04T07:16:43.245Z,1.30
2022-12-04T07:18:19.574Z,1.40
2022-12-04T07:19:53.000Z,1.40
2022-12-04T07:22:26.403Z,1.40
2022-12-04T07:23:44.029Z,1.50
2022-12-04T07:26:52.373Z,1.50
2022-12-04T07:28:23.638Z,1.40
2022-12-04T07:30:12.546Z,1.40
2022-12-04T07:31:32.941Z,1.40
2022-12-04T07:32:49.450Z,1.30
2022-12-04T07:34:05.291Z,1.40
2022-12-04T07:37:24.806Z,1.40
2022-12-04T07:38:30.030Z,1.40
2022-12-04T07:39:53.736Z,1.50
2022-12-04T07:41:14.545Z,1.40
2022-12-04T07:42:29.241Z,1.40
2022-12-04T07:43:52.734Z,1.40
2022-12-04T07:45:13.085Z,1.40
2022-12-04T07:46:33.481Z,1.40
2022-12-04T07:47:46.850Z,1.40
2022-12-04T07:48:58.977Z,1.30
2022-12-04T07:50:06.994Z,1.30
2022-12-04T07:51:46.628Z,1.40
2022-12-04T07:52:54.662Z,1.30
2022-12-04T07:54:08.019Z,1.30
2022-12-04T07:55:23.373Z,1.20
2022-12-04T07:56:43.021Z,1.20
2022-12-04T07:58:13.686Z,1.20
2022-12-04T07:59:24.154Z,1.20
2022-12-04T08:00:39.422Z,1.20
2022-12-04T08:02:03.459Z,1.30
2022-12-04T08:03:16.633Z,1.40
2022-12-04T08:04:49.585Z,1.50
2022-12-04T08:06:06.665Z,1.50
2022-12-04T08:07:27.560Z,1.50
2022-12-04T08:08:41.419Z,1.50
2022-12-04T08:09:53.083Z,1.50
2022-12-04T08:11:05.334Z,1.50
2022-12-04T08:12:21.574Z,1.50
2022-12-04T08:13:36.614Z,1.50
2022-12-04T08:14:47.912Z,1.60
2022-12-04T08:16:06.126Z,1.60
2022-12-04T08:17:16.299Z,1.60
2022-12-04T08:18:20.415Z,1.60
2022-12-04T08:19:33.184Z,1.60
2022-12-04T08:20:44.165Z,1.60
2022-12-04T08:21:53.713Z,1.50
2022-12-04T08:23:03.138Z,1.50
2022-12-04T08:24:17.211Z,1.60
2022-12-04T08:25:22.542Z,1.60
2022-12-04T08:26:38.140Z,1.60
2022-12-04T08:27:49.686Z,1.60
2022-12-04T08:29:02.503Z,1.60
2022-12-04T08:31:38.335Z,1.60
2022-12-04T08:33:03.084Z,1.60
2022-12-04T08:34:20.901Z,1.60
2022-12-04T08:39:34.052Z,1.70
2022-12-04T08:42:20.153Z,1.70
2022-12-04T08:43:25.389Z,1.70
2022-12-04T08:44:35.725Z,1.70
2022-12-04T08:45:54.783Z,1.70
2022-12-04T08:47:06.790Z,1.70
2022-12-04T08:49:34.394Z,1.80
2022-12-04T08:50:41.106Z,1.80
2022-12-04T08:51:51.060Z,1.80
2022-12-04T08:52:58.200Z,1.90
2022-12-04T08:54:15.894Z,1.80
2022-12-04T08:55:21.074Z,1.80
2022-12-04T08:56:28.832Z,1.70
2022-12-04T08:57:40.540Z,1.80
2022-12-04T08:58:42.631Z,1.80
2022-12-04T08:59:51.239Z,1.70
2022-12-04T09:01:15.129Z,1.70
2022-12-04T09:02:31.487Z,1.70
2022-12-04T09:03:38.417Z,1.80
2022-12-04T09:04:50.588Z,1.70
2022-12-04T09:07:53.457Z,1.80
2022-12-04T09:09:09.089Z,1.80
2022-12-04T09:10:34.001Z,1.90
2022-12-04T09:11:57.111Z,1.80
2022-12-04T09:13:08.207Z,1.80
2022-12-04T09:14:36.836Z,1.70
2022-12-04T09:15:55.249Z,1.80
2022-12-04T09:17:17.735Z,1.80
2022-12-04T09:18:46.504Z,1.80
2022-12-04T09:20:03.493Z,1.80
2022-12-04T09:21:36.683Z,1.80
2022-12-04T09:23:09.416Z,1.80
2022-12-04T09:24:22.768Z,1.80
2022-12-04T09:29:24.108Z,1.70
2022-12-04T09:30:38.637Z,1.80
2022-12-04T09:31:59.694Z,1.80
2022-12-04T09:33:32.431Z,1.80
2022-12-04T09:34:51.218Z,1.90
2022-12-04T09:38:18.578Z,2.00
2022-12-04T09:39:36.324Z,2.00
2022-12-04T09:41:03.285Z,2.00
2022-12-04T09:42:36.576Z,1.90
2022-12-04T09:43:58.730Z,1.90
2022-12-04T09:45:22.122Z,1.90
2022-12-04T09:46:38.169Z,1.90
2022-12-04T09:49:35.785Z,1.90
2022-12-04T09:51:04.307Z,1.80
2022-12-04T09:54:16.303Z,1.90
2022-12-04T09:55:22.812Z,1.90
2022-12-04T09:56:28.873Z,2.00
2022-12-04T09:57:42.177Z,2.00
2022-12-04T09:58:59.141Z,2.10
2022-12-04T10:08:08.867Z,2.10
2022-12-04T10:12:19.377Z,2.00
2022-12-04T10:20:11.694Z,2.10
2022-12-04T10:21:45.703Z,2.10
2022-12-04T10:23:25.676Z,2.10
2022-12-04T10:24:45.685Z,2.00
2022-12-04T10:25:49.207Z,2.00
2022-12-04T10:26:52.597Z,2.00
2022-12-04T10:28:02.679Z,2.00
2022-12-04T10:29:08.336Z,2.00
2022-12-04T10:30:26.378Z,2.10
2022-12-04T10:31:29.748Z,2.10
2022-12-04T10:32:35.143Z,2.10
2022-12-04T10:33:38.503Z,2.20
2022-12-04T10:34:45.499Z,2.10
2022-12-04T10:35:52.359Z,2.20
2022-12-04T10:36:58.868Z,2.20
2022-12-04T10:38:38.475Z,2.20
2022-12-04T10:39:43.131Z,2.20
2022-12-04T10:40:50.041Z,2.20
2022-12-04T10:42:01.173Z,2.30
2022-12-04T10:43:14.536Z,2.30
2022-12-04T10:44:18.155Z,2.30
2022-12-04T10:45:22.604Z,2.30
2022-12-04T10:46:34.795Z,2.30
2022-12-04T10:47:37.391Z,2.40
2022-12-04T10:48:41.456Z,2.40
2022-12-04T10:49:43.234Z,2.40
2022-12-04T10:50:45.506Z,2.50
2022-12-04T10:51:47.744Z,2.40
2022-12-04T10:52:50.177Z,2.30
2022-12-04T10:53:52.367Z,2.40
2022-12-04T10:55:01.263Z,2.40
2022-12-04T10:56:21.201Z,2.40
2022-12-04T10:57:22.938Z,2.40
2022-12-04T10:58:27.089Z,2.40
2022-12-04T10:59:29.633Z,2.40
2022-12-04T11:00:33.761Z,2.40
2022-12-04T11:01:35.687Z,2.40
2022-12-04T11:02:38.877Z,2.20
2022-12-04T11:03:44.105Z,2.20
2022-12-04T11:04:56.915Z,2.20
2022-12-04T11:06:02.150Z,2.10
2022-12-04T11:07:07.812Z,2.10
2022-12-04T11:08:23.487Z,2.10
2022-12-04T11:09:25.611Z,2.10
2022-12-04T11:10:43.190Z,2.10
2022-12-04T11:11:44.887Z,2.10
2022-12-04T11:12:58.061Z,2.10
2022-12-04T11:14:18.628Z,2.10
2022-12-04T11:15:20.532Z,2.20
2022-12-04T11:16:44.649Z,2.20
2022-12-04T11:17:46.546Z,2.10
2022-12-04T11:18:50.331Z,2.10
2022-12-04T11:20:21.060Z,2.10
2022-12-04T11:21:32.500Z,2.20
2022-12-04T11:22:37.100Z,2.20
2022-12-04T11:23:45.055Z,2.30
2022-12-04T11:24:53.153Z,2.30
2022-12-04T11:26:05.271Z,2.30
2022-12-04T11:27:18.830Z,2.30
2022-12-04T11:29:47.947Z,2.30
2022-12-04T11:30:55.269Z,2.40
2022-12-04T11:31:59.404Z,2.40
2022-12-04T11:33:18.097Z,2.40
2022-12-04T11:34:38.706Z,2.30
2022-12-04T11:35:40.410Z,2.30
2022-12-04T11:36:42.575Z,2.30
2022-12-04T11:37:54.057Z,2.30
2022-12-04T11:39:17.211Z,2.30
2022-12-04T11:40:20.301Z,2.40
2022-12-04T11:41:28.535Z,2.40
2022-12-04T11:42:32.029Z,2.50
2022-12-04T11:43:37.687Z,2.40
2022-12-04T11:44:49.260Z,2.40
2022-12-04T11:45:59.550Z,2.50
2022-12-04T11:47:04.857Z,2.40
2022-12-04T11:48:18.388Z,2.40
2022-12-04T11:49:24.873Z,2.40
2022-12-04T11:51:16.406Z,2.30
2022-12-04T11:52:41.667Z,2.40
2022-12-04T11:53:52.758Z,2.40
2022-12-04T11:55:01.372Z,2.30
2022-12-04T11:56:21.646Z,2.20
2022-12-04T11:57:43.668Z,2.30
2022-12-04T11:59:24.214Z,2.30
2022-12-04T12:00:27.515Z,2.40
2022-12-04T12:01:56.325Z,2.40
2022-12-04T12:03:21.165Z,2.40
2022-12-04T12:04:33.627Z,2.30
2022-12-04T12:06:28.919Z,2.20
2022-12-04T12:08:02.732Z,2.20
2022-12-04T12:09:31.671Z,2.20
2022-12-04T12:10:44.993Z,2.10
2022-12-04T12:11:54.195Z,2.10
2022-12-04T12:13:14.491Z,2.10
2022-12-04T12:14:29.125Z,2.00
2022-12-04T12:15:46.033Z,2.00
2022-12-04T12:17:04.005Z,2.00
2022-12-04T12:18:16.470Z,2.10
2022-12-04T12:19:32.016Z,2.10
2022-12-04T12:20:41.020Z,2.10
2022-12-04T12:22:28.045Z,2.10
2022-12-04T12:23:49.915Z,2.20
2022-12-04T12:25:03.299Z,2.20
2022-12-04T12:26:10.901Z,2.20
2022-12-04T12:27:50.416Z,2.20
2022-12-04T12:28:58.238Z,2.20
2022-12-04T12:30:17.626Z,2.20
2022-12-04T12:31:45.614Z,2.20
2022-12-04T12:32:53.887Z,2.30
2022-12-04T12:34:03.287Z,2.20
2022-12-04T12:35:13.200Z,2.20
2022-12-04T12:36:15.470Z,2.20
2022-12-04T12:37:46.306Z,2.20
2022-12-04T12:38:58.760Z,2.10
2022-12-04T12:40:23.571Z,2.10
2022-12-04T12:41:50.303Z,2.10
2022-12-04T12:43:19.511Z,2.10
2022-12-04T12:44:24.158Z,2.10
2022-12-04T12:46:04.290Z,2.10
2022-12-04T12:47:17.345Z,2.10
2022-12-04T12:48:46.784Z,2.00
2022-12-04T12:49:59.586Z,2.10
2022-12-04T12:51:29.160Z,2.20
2022-12-04T12:52:42.217Z,2.20
2022-12-04T12:53:47.896Z,2.20
2022-12-04T12:54:58.743Z,2.20
2022-12-04T12:56:03.839Z,2.20
2022-12-04T12:57:36.365Z,2.20
2022-12-04T12:58:53.948Z,2.20
2022-12-04T12:59:59.951Z,2.20
2022-12-04T13:01:07.876Z,2.20
2022-12-04T13:02:43.270Z,2.20
2022-12-04T13:03:55.142Z,2.20
2022-12-04T13:05:01.158Z,2.30
2022-12-04T13:06:09.722Z,2.20
2022-12-04T13:07:17.403Z,2.20
2022-12-04T13:08:25.908Z,2.20
2022-12-04T13:09:35.072Z,2.20
2022-12-04T13:10:43.363Z,2.20
2022-12-04T13:11:48.601Z,2.10
2022-12-04T13:13:02.184Z,2.10
2022-12-04T13:14:05.014Z,2.10
2022-12-04T13:15:12.911Z,2.10
2022-12-04T13:16:25.770Z,2.10
2022-12-04T13:17:34.021Z,2.10
2022-12-04T13:18:41.307Z,2.10
2022-12-04T13:19:51.797Z,2.10
2022-12-04T13:20:59.049Z,2.10
2022-12-04T13:22:31.471Z,2.10
2022-12-04T13:23:45.520Z,2.10
2022-12-04T13:25:19.382Z,2.10
2022-12-04T13:26:51.154Z,2.10
2022-12-04T13:28:17.788Z,2.10
2022-12-04T13:29:35.619Z,2.10
2022-12-04T13:30:44.078Z,2.10
2022-12-04T13:32:05.891Z,2.10
2022-12-04T13:33:34.006Z,2.00
2022-12-04T13:34:44.436Z,2.10
2022-12-04T13:36:01.234Z,2.10
2022-12-04T13:37:17.524Z,2.00
2022-12-04T13:38:28.324Z,2.10
2022-12-04T13:39:48.670Z,2.10
2022-12-04T13:41:01.373Z,2.10
2022-12-04T13:42:06.635Z,2.10
2022-12-04T13:43:36.928Z,2.10
2022-12-04T13:44:40.604Z,2.00
2022-12-04T13:45:45.547Z,2.00
2022-12-04T13:46:57.326Z,2.00
2022-12-04T13:48:00.959Z,2.10
2022-12-04T13:49:17.647Z,2.10
2022-12-04T13:50:19.198Z,2.10
2022-12-04T13:51:38.168Z,2.10
2022-12-04T13:52:41.761Z,2.10
2022-12-04T13:53:44.120Z,2.10
2022-12-04T13:54:59.796Z,2.10
2022-12-04T13:56:07.328Z,2.10
2022-12-04T13:57:16.442Z,2.10
2022-12-04T13:58:18.070Z,2.20
2022-12-04T13:59:30.488Z,2.20
2022-12-04T14:00:36.418Z,2.20
2022-12-04T14:01:41.215Z,2.10
2022-12-04T14:02:51.253Z,2.10
2022-12-04T14:03:59.392Z,2.10
2022-12-04T14:05:14.327Z,2.00
2022-12-04T14:06:34.858Z,2.00
2022-12-04T14:07:38.814Z,2.00
2022-12-04T14:08:43.540Z,2.00
2022-12-04T14:09:53.121Z,2.00
2022-12-04T14:11:14.078Z,2.00
2022-12-04T14:12:17.569Z,2.00
2022-12-04T14:13:23.417Z,2.10
2022-12-04T14:14:43.187Z,2.10
2022-12-04T14:15:45.172Z,2.00
2022-12-04T14:16:49.317Z,2.10
2022-12-04T14:18:14.485Z,2.10
2022-12-04T14:19:36.363Z,2.10
2022-12-04T14:20:39.709Z,2.10
2022-12-04T14:21:46.977Z,2.10
2022-12-04T14:22:48.708Z,2.10
2022-12-04T14:23:51.845Z,2.10
2022-12-04T14:25:04.442Z,2.10
2022-12-04T14:26:18.761Z,2.10
2022-12-04T14:27:43.483Z,2.10
2022-12-04T14:28:45.211Z,2.10
2022-12-04T14:29:52.646Z,2.10
2022-12-04T14:31:17.332Z,2.00
2022-12-04T14:32:25.930Z,2.00
2022-12-04T14:33:30.616Z,2.00
2022-12-04T14:34:35.289Z,2.00
2022-12-04T14:35:46.412Z,2.10
2022-12-04T14:36:51.374Z,2.10
2022-12-04T14:37:57.696Z,2.10
2022-12-04T14:39:20.052Z,2.00
2022-12-04T14:40:45.391Z,2.00
2022-12-04T14:41:47.142Z,2.10
2022-12-04T14:42:49.984Z,2.10
2022-12-04T14:43:53.653Z,2.10
2022-12-04T14:45:00.840Z,2.10
2022-12-04T14:46:25.877Z,2.20
2022-12-04T14:48:01.599Z,2.10
2022-12-04T14:49:18.357Z,2.20
2022-12-04T14:50:50.313Z,2.20
2022-12-04T14:52:14.854Z,2.20
2022-12-04T14:53:46.012Z,2.20
2022-12-04T14:55:20.511Z,2.20
2022-12-04T14:56:38.632Z,2.20
2022-12-04T14:58:00.110Z,2.10
2022-12-04T14:59:16.081Z,2.10
2022-12-04T15:00:22.452Z,2.10
2022-12-04T15:01:29.659Z,2.10
2022-12-04T15:02:40.306Z,2.10
2022-12-04T15:03:44.891Z,2.20
2022-12-04T15:04:49.078Z,2.10
2022-12-04T15:05:52.672Z,2.10
2022-12-04T15:06:59.878Z,2.10
2022-12-04T15:08:05.530Z,2.10
2022-12-04T15:09:39.059Z,2.10
2022-12-04T15:11:07.141Z,2.10
2022-12-04T15:12:34.887Z,2.10
2022-12-04T15:13:38.013Z,2.10
2022-12-04T15:14:44.777Z,2.20
2022-12-04T15:15:47.022Z,2.20
2022-12-04T15:16:48.740Z,2.20
2022-12-04T15:18:01.594Z,2.20
2022-12-04T15:19:03.207Z,2.20
2022-12-04T15:20:18.704Z,2.10
2022-12-04T15:21:20.862Z,2.10
2022-12-04T15:22:28.336Z,2.10
2022-12-04T15:23:44.075Z,2.10
2022-12-04T15:24:45.927Z,2.10
2022-12-04T15:25:53.491Z,2.10
2022-12-04T15:26:55.662Z,2.10
2022-12-04T15:28:06.121Z,2.20
2022-12-04T15:29:09.347Z,2.20
2022-12-04T15:30:18.350Z,2.20
2022-12-04T15:31:24.825Z,2.20
2022-12-04T15:32:28.767Z,2.20
2022-12-04T15:33:35.839Z,2.10
2022-12-04T15:34:43.616Z,2.10
2022-12-04T15:35:51.128Z,2.10
2022-12-04T15:37:06.221Z,2.10
2022-12-04T15:38:12.782Z,2.10
2022-12-04T15:39:18.853Z,2.10
2022-12-04T15:40:23.584Z,2.20
2022-12-04T15:41:33.726Z,2.10
2022-12-04T15:42:35.412Z,2.10
2022-12-04T15:43:43.358Z,2.10
2022-12-04T15:45:00.943Z,2.10
2022-12-04T15:46:21.115Z,2.10
2022-12-04T15:47:25.484Z,2.10
2022-12-04T15:48:29.822Z,2.10
2022-12-04T15:49:32.947Z,2.00
2022-12-04T15:50:34.886Z,2.00
2022-12-04T15:51:36.478Z,2.00
2022-12-04T15:52:47.309Z,2.10
2022-12-04T15:53:48.974Z,2.10
2022-12-04T15:55:15.636Z,2.00
2022-12-04T15:56:21.985Z,2.00
2022-12-04T15:57:35.824Z,2.00
2022-12-04T15:58:39.787Z,2.00
2022-12-04T15:59:41.521Z,2.00
2022-12-04T16:00:44.051Z,2.00
2022-12-04T16:01:46.038Z,2.00
2022-12-04T16:02:48.635Z,2.00
2022-12-04T16:03:52.919Z,2.00
2022-12-04T16:04:54.750Z,2.10
2022-12-04T16:06:07.612Z,2.10
2022-12-04T16:07:28.549Z,2.10
2022-12-04T16:08:36.039Z,2.10
2022-12-04T16:09:37.688Z,2.10
2022-12-04T16:10:39.539Z,2.10
2022-12-04T16:11:41.837Z,2.10
2022-12-04T16:12:53.516Z,2.10
2022-12-04T16:14:15.583Z,2.10
2022-12-04T16:15:17.234Z,2.10
2022-12-04T16:16:22.094Z,2.20
2022-12-04T16:17:34.119Z,2.20
2022-12-04T16:18:37.057Z,2.10
2022-12-04T16:19:42.450Z,2.10
2022-12-04T16:20:44.150Z,2.00
2022-12-04T16:21:46.525Z,2.00
2022-12-04T16:22:52.973Z,2.00
2022-12-04T16:23:54.774Z,2.00
2022-12-04T16:24:57.045Z,2.00
2022-12-04T16:25:58.788Z,1.90
2022-12-04T16:27:00.943Z,1.90
2022-12-04T16:28:02.594Z,2.00
2022-12-04T16:29:04.397Z,1.90
2022-12-04T16:30:06.531Z,1.90
2022-12-04T16:31:10.853Z,1.90
2022-12-04T16:32:15.607Z,1.90
2022-12-04T16:33:17.390Z,2.00
2022-12-04T16:34:19.044Z,2.00
2022-12-04T16:35:21.284Z,2.00
2022-12-04T16:36:22.876Z,2.00
2022-12-04T16:37:24.972Z,2.00
2022-12-04T16:38:26.575Z,2.10
2022-12-04T16:39:28.211Z,2.10
2022-12-04T16:40:29.800Z,2.00
2022-12-04T16:41:31.482Z,2.00
2022-12-04T16:42:34.814Z,2.00
2022-12-04T16:43:36.423Z,2.00
2022-12-04T16:44:40.283Z,2.00
2022-12-04T16:45:49.017Z,1.90
2022-12-04T16:46:50.978Z,2.00
2022-12-04T16:47:52.940Z,2.00
2022-12-04T16:48:54.869Z,2.00
2022-12-04T16:49:56.497Z,2.00
2022-12-04T16:50:58.144Z,2.00
2022-12-04T16:51:59.728Z,2.00
2022-12-04T16:53:01.344Z,2.00
2022-12-04T16:54:03.034Z,2.00
2022-12-04T16:55:21.905Z,2.00
2022-12-04T16:56:23.650Z,2.00
2022-12-04T16:57:25.270Z,2.00
2022-12-04T16:58:26.883Z,2.10
2022-12-04T16:59:28.565Z,2.10
2022-12-04T17:00:30.296Z,2.10
2022-12-04T17:01:39.141Z,2.10
2022-12-04T17:02:42.860Z,2.10
2022-12-04T17:03:44.778Z,2.00
2022-12-04T17:04:46.458Z,2.10
2022-12-04T17:05:48.293Z,2.00
2022-12-04T17:06:53.091Z,2.00
2022-12-04T17:07:55.631Z,1.90
2022-12-04T17:08:57.660Z,1.90
2022-12-04T17:09:59.563Z,1.90
2022-12-04T17:11:01.193Z,1.90
2022-12-04T17:12:02.817Z,1.90
2022-12-04T17:13:07.450Z,1.90
2022-12-04T17:14:09.784Z,2.00
2022-12-04T17:15:12.986Z,2.00
2022-12-04T17:16:19.595Z,2.00
2022-12-04T17:17:22.207Z,2.00
2022-12-04T17:18:24.185Z,2.00
2022-12-04T17:19:25.851Z,2.00
2022-12-04T17:20:28.136Z,2.10
2022-12-04T17:21:30.569Z,2.00
2022-12-04T17:22:32.539Z,2.00
2022-12-04T17:23:34.863Z,2.00
2022-12-04T17:24:43.572Z,2.00
2022-12-04T17:25:49.326Z,2.00
2022-12-04T17:27:01.833Z,2.00
2022-12-04T17:28:32.149Z,2.00
2022-12-04T17:29:48.566Z,2.00
2022-12-04T17:31:04.615Z,2.00
2022-12-04T17:32:36.755Z,2.00
2022-12-04T17:35:23.364Z,2.00
2022-12-04T17:36:39.884Z,2.00
2022-12-04T17:42:48.625Z,2.00
2022-12-04T17:45:45.890Z,2.00
2022-12-04T17:50:46.322Z,1.90
2022-12-04T17:51:47.977Z,1.90
2022-12-04T17:52:49.782Z,1.90
2022-12-04T17:53:51.921Z,1.90